SCAR METAR and TAF weather

Enter ICAO airport designator
Station Type Date Time Source
SCAR METAR 2020/12/05 06:00 UTC NOAA

SCAR 050600Z AUTO 03005KT CAVOK 18/14 Q1015


Station Type Date Time Source
SCAR Decoded METAR 2020/12/05 06:00 UTC NOAA

Arica, Chile (SCAR) 18-20S 070-20W 58M
Dec 05, 2020 - 01:00 AM EST / 2020.12.05 0600 UTC
Wind: from the NNE (030 degrees) at 6 MPH (5 KT):0
Visibility: greater than 7 mile(s):0
Temperature: 64 F (18 C)
Dew Point: 57 F (14 C)
Relative Humidity: 77%
Pressure (altimeter): 29.97 in. Hg (1015 hPa)
ob: SCAR 050600Z AUTO 03005KT CAVOK 18/14 Q1015
cycle: 6

Station Type Date Time Source
SCAR TAF 2020/12/05 06:07 UTC NOAA

TAF SCAR 050430Z 0506/0606 19004KT CAVOK TN17/0506Z TX23/0518Z
BECMG 0508/0510 10004KT
BECMG 0514/0516 23012KT
BECMG 0522/0600 20010KT
BECMG 0604/0606 17004KT

Example: see airport list